virtualACA

Welcome To Toronto Pearson Int'L. CYYZ

Hub Roster

Pilot Domicile Rank
Graham Brewer - ACA1346CanadaChief Administrative Officer
Stefan Kleiss - ACA2247AustriaSenior Captain
Herve Despres - ACA2620CanadaHub Director
Mike Hillyer - ACA2790CanadaChief Pilot
Steve Wilson - ACA3246CanadaFirst Officer
Tony Smith - ACA3304CanadaSecond Officer
Samuel Ribas - ACA3320CanadaNew Hire
Danny Shedlo - ACA3329United StatesSecond Officer
Goncalo Santos - ACA3333PortugalNew Hire

Current Vatsim Weather


CYYZ 062100Z 13009KT 15SM FEW060 FEW240 23/11 A3011 RMK CU1CC1 SLP198 DENSITY ALT 1400FT
Toronto Pearson Int'L.